Aviation Digital Data Service (ADDS)

Output produced by METARs form (1942 UTC 25 March 2017)
found at http://www.aviationweather.gov/adds/metars/
 
SYCJ 251900Z 06010KT 030V100 9999 SCT022 31/23 Q1010 NOSIG
TAF SYCJ 251700Z 2518/2618 10010KT 9999 BKN017 SCT090 
     BECMG 2600/2602 07004KT 9999 SCT016 SCT100 
     PROB30 
     TEMPO 2607/2611 VRB04KT 7000 SHRA BKN014 BKN036 
     BECMG 2612/2614 05010KT 9999 BKN017
       
TAF SYKM 251115Z 2512/2523 04008KT 9999 BKN016 SCT040 
     TEMPO 2516/2522 7000 SHRA BKN014
       
TAF SYLT 251115Z 2512/2523 03012KT 9999 BKN0020 SCT040 
     PROB30 
     TEMPO 2515/2518 8000 SHRA BKN016